createdAt,value
2023-01-02T00:02:55.751Z,20.39
2023-01-02T00:07:59.417Z,20.40
2023-01-02T00:13:02.918Z,20.40
2023-01-02T00:18:06.414Z,20.36
2023-01-02T00:23:09.889Z,20.30
2023-01-02T00:28:13.515Z,20.30
2023-01-02T00:33:17.020Z,20.28
2023-01-02T00:38:20.610Z,20.22
2023-01-02T00:43:24.207Z,20.19
2023-01-02T00:48:27.680Z,20.21
2023-01-02T00:53:31.169Z,20.18
2023-01-02T00:58:34.707Z,20.18
2023-01-02T01:03:38.586Z,20.14
2023-01-02T01:08:42.066Z,20.12
2023-01-02T01:13:45.676Z,20.06
2023-01-02T01:18:49.471Z,20.04
2023-01-02T01:23:53.031Z,20.05
2023-01-02T01:28:56.546Z,19.99
2023-01-02T01:34:00.097Z,19.92
2023-01-02T01:39:03.596Z,19.92
2023-01-02T01:44:07.115Z,19.90
2023-01-02T01:49:10.638Z,19.88
2023-01-02T01:54:14.122Z,19.85
2023-01-02T01:59:17.646Z,19.84
2023-01-02T02:04:21.216Z,19.82
2023-01-02T02:09:24.776Z,19.83
2023-01-02T02:14:28.285Z,19.80
2023-01-02T02:19:31.759Z,19.77
2023-01-02T02:24:35.262Z,19.74
2023-01-02T02:29:38.816Z,19.72
2023-01-02T02:34:42.350Z,19.71
2023-01-02T02:39:46.280Z,19.67
2023-01-02T02:44:49.848Z,19.65
2023-01-02T02:49:53.356Z,19.64
2023-01-02T02:54:56.841Z,19.62
2023-01-02T03:00:00.306Z,19.62
2023-01-02T03:05:03.780Z,19.62
2023-01-02T03:10:07.269Z,19.60
2023-01-02T03:15:10.797Z,19.60
2023-01-02T03:20:14.478Z,19.56
2023-01-02T03:25:18.001Z,19.54
2023-01-02T03:30:21.521Z,19.53
2023-01-02T03:35:25.012Z,19.52
2023-01-02T03:40:28.545Z,19.51
2023-01-02T03:45:32.048Z,19.48
2023-01-02T03:50:36.607Z,19.47
2023-01-02T03:55:40.139Z,19.47
2023-01-02T04:00:43.628Z,19.47
2023-01-02T04:05:47.101Z,19.44
2023-01-02T04:10:56.255Z,19.44
2023-01-02T04:16:02.813Z,19.40
2023-01-02T04:21:06.402Z,19.38
2023-01-02T04:26:09.881Z,19.36
2023-01-02T04:31:13.562Z,19.36
2023-01-02T04:36:17.139Z,19.36
2023-01-02T04:41:20.670Z,19.34
2023-01-02T04:46:24.236Z,19.32
2023-01-02T04:51:27.963Z,19.30
2023-01-02T04:56:31.457Z,19.29
2023-01-02T05:01:35.113Z,19.30
2023-01-02T05:06:38.655Z,19.26
2023-01-02T05:11:42.154Z,19.24
2023-01-02T05:16:45.660Z,19.25
2023-01-02T05:22:07.206Z,19.22
2023-01-02T05:27:10.758Z,19.24
2023-01-02T05:32:14.249Z,19.22
2023-01-02T05:37:17.761Z,19.20
2023-01-02T05:42:21.465Z,19.17
2023-01-02T05:47:24.976Z,19.18
2023-01-02T05:52:28.491Z,19.15
2023-01-02T05:57:31.993Z,19.21
2023-01-02T06:02:35.520Z,19.16
2023-01-02T06:07:39.365Z,19.21
2023-01-02T06:12:42.904Z,19.37
2023-01-02T06:17:46.460Z,19.37
2023-01-02T06:22:49.970Z,19.29
2023-01-02T06:27:53.507Z,19.21
2023-01-02T06:32:57.053Z,19.22
2023-01-02T06:38:00.548Z,19.21
2023-01-02T06:43:04.091Z,19.11
2023-01-02T06:48:07.717Z,19.11
2023-01-02T06:53:11.216Z,19.16
2023-01-02T06:58:19.350Z,19.13
2023-01-02T07:03:23.299Z,19.13
2023-01-02T07:08:26.871Z,19.09
2023-01-02T07:13:30.368Z,19.08
2023-01-02T07:18:33.957Z,19.08
2023-01-02T07:23:37.495Z,19.07
2023-01-02T07:28:41.300Z,19.06
2023-01-02T07:33:44.829Z,19.05
2023-01-02T07:38:48.347Z,19.03
2023-01-02T07:43:51.847Z,19.03
2023-01-02T07:48:55.381Z,19.03
2023-01-02T07:53:58.870Z,18.99
2023-01-02T07:59:02.435Z,18.98
2023-01-02T08:04:08.451Z,18.98
2023-01-02T08:09:12.030Z,19.01
2023-01-02T08:14:21.561Z,19.01
2023-01-02T08:19:26.899Z,19.00
2023-01-02T08:24:30.406Z,18.97
2023-01-02T08:29:33.939Z,18.81
2023-01-02T08:34:38.023Z,18.57
2023-01-02T08:39:41.577Z,18.50
2023-01-02T08:44:45.173Z,18.88
2023-01-02T08:49:48.659Z,18.80
2023-01-02T08:54:52.413Z,17.86
2023-01-02T08:59:55.939Z,18.74
2023-01-02T09:04:59.464Z,18.98
2023-01-02T09:10:02.947Z,18.97
2023-01-02T09:15:06.449Z,19.03
2023-01-02T09:20:10.065Z,19.01
2023-01-02T09:25:15.473Z,18.91
2023-01-02T09:30:21.180Z,18.94
2023-01-02T09:35:24.668Z,18.98
2023-01-02T09:40:28.148Z,18.96
2023-01-02T09:45:31.789Z,18.99
2023-01-02T09:50:35.300Z,19.02
2023-01-02T09:55:38.812Z,18.95
2023-01-02T10:00:42.300Z,18.92
2023-01-02T10:05:45.862Z,18.94
2023-01-02T10:10:49.415Z,18.95
2023-01-02T10:15:53.107Z,18.97
2023-01-02T10:20:56.687Z,18.97
2023-01-02T10:26:00.208Z,18.98
2023-01-02T10:31:07.301Z,19.00
2023-01-02T10:36:12.272Z,19.03
2023-01-02T10:41:15.789Z,19.08
2023-01-02T10:46:19.352Z,19.05
2023-01-02T10:51:22.921Z,19.06
2023-01-02T10:56:26.484Z,18.98
2023-01-02T11:01:30.190Z,18.93
2023-01-02T11:06:39.492Z,18.92
2023-01-02T11:11:43.668Z,18.90
2023-01-02T11:16:47.196Z,18.92
2023-01-02T11:21:50.769Z,18.90
2023-01-02T11:26:55.723Z,18.96
2023-01-02T11:31:59.460Z,18.87
2023-01-02T11:37:03.854Z,18.86
2023-01-02T11:42:25.374Z,18.86
2023-01-02T11:47:28.854Z,18.84
2023-01-02T11:52:32.797Z,18.86
2023-01-02T11:57:36.375Z,18.82
2023-01-02T12:02:39.943Z,18.83
2023-01-02T12:07:43.625Z,18.80
2023-01-02T12:12:47.573Z,18.82
2023-01-02T12:17:53.252Z,18.84
2023-01-02T12:22:56.770Z,18.78
2023-01-02T12:28:00.292Z,18.79
2023-01-02T12:33:03.807Z,18.81
2023-01-02T12:38:07.278Z,18.90
2023-01-02T12:43:10.859Z,18.84
2023-01-02T12:48:14.377Z,18.74
2023-01-02T12:53:20.120Z,19.01
2023-01-02T12:58:23.712Z,19.08
2023-01-02T13:03:27.242Z,19.09
2023-01-02T13:08:30.969Z,19.11
2023-01-02T13:13:34.501Z,19.10
2023-01-02T13:18:38.001Z,18.99
2023-01-02T13:24:01.461Z,18.82
2023-01-02T13:29:06.832Z,18.80
2023-01-02T13:34:10.522Z,18.82
2023-01-02T13:39:14.065Z,18.77
2023-01-02T13:44:18.673Z,18.70
2023-01-02T13:49:22.367Z,18.76
2023-01-02T13:54:25.971Z,18.79
2023-01-02T13:59:41.619Z,18.69
2023-01-02T14:04:46.946Z,18.54
2023-01-02T14:09:50.475Z,18.66
2023-01-02T14:14:53.976Z,18.63
2023-01-02T14:19:57.465Z,18.52
2023-01-02T14:25:00.946Z,18.83
2023-01-02T14:30:04.439Z,19.03
2023-01-02T14:35:08.124Z,19.16
2023-01-02T14:40:11.658Z,18.99
2023-01-02T14:45:15.155Z,18.96
2023-01-02T14:50:18.671Z,19.10
2023-01-02T14:55:22.223Z,19.29
2023-01-02T15:00:25.741Z,19.40
2023-01-02T15:05:32.166Z,19.37
2023-01-02T15:10:35.876Z,19.43
2023-01-02T15:15:39.596Z,19.49
2023-01-02T15:20:43.268Z,19.54
2023-01-02T15:25:46.784Z,19.55
2023-01-02T15:30:50.278Z,19.63
2023-01-02T15:35:53.790Z,19.60
2023-01-02T15:40:57.304Z,19.64
2023-01-02T15:46:00.826Z,19.67
2023-01-02T15:51:04.335Z,19.68
2023-01-02T15:56:08.026Z,19.70
2023-01-02T16:01:11.779Z,19.76
2023-01-02T16:06:15.366Z,19.77
2023-01-02T16:11:18.873Z,19.80
2023-01-02T16:16:22.399Z,19.82
2023-01-02T16:21:25.904Z,19.82
2023-01-02T16:26:29.362Z,19.84
2023-01-02T16:31:33.071Z,19.87
2023-01-02T16:36:36.657Z,19.87
2023-01-02T16:41:42.295Z,19.86
2023-01-02T16:46:45.797Z,19.86
2023-01-02T16:51:49.311Z,19.87
2023-01-02T16:56:53.031Z,19.84
2023-01-02T17:01:56.672Z,19.90
2023-01-02T17:07:00.338Z,19.88
2023-01-02T17:12:03.916Z,19.89
2023-01-02T17:17:07.667Z,19.90
2023-01-02T17:22:11.192Z,19.97
2023-01-02T17:27:14.748Z,19.99
2023-01-02T17:32:18.437Z,20.04
2023-01-02T17:37:24.471Z,20.08
2023-01-02T17:42:28.193Z,20.11
2023-01-02T17:47:58.759Z,20.13
2023-01-02T17:52:55.434Z,20.11
2023-01-02T17:58:00.464Z,20.12
2023-01-02T18:03:04.007Z,20.14
2023-01-02T18:08:07.574Z,20.17
2023-01-02T18:13:11.033Z,19.94
2023-01-02T18:18:14.590Z,20.25
2023-01-02T18:23:18.103Z,20.25
2023-01-02T18:28:21.890Z,20.21
2023-01-02T18:33:26.387Z,20.22
2023-01-02T18:38:30.053Z,20.17
2023-01-02T18:43:35.895Z,20.13
2023-01-02T18:48:39.501Z,20.24
2023-01-02T18:53:43.441Z,20.18
2023-01-02T18:58:51.503Z,20.12
2023-01-02T19:03:58.242Z,20.15
2023-01-02T19:09:01.964Z,20.16
2023-01-02T19:14:05.571Z,20.11
2023-01-02T19:19:09.119Z,20.14
2023-01-02T19:24:12.614Z,20.16
2023-01-02T19:29:17.243Z,20.23
2023-01-02T19:34:20.813Z,20.19
2023-01-02T19:39:24.922Z,20.14
2023-01-02T19:44:28.501Z,20.10
2023-01-02T19:49:31.987Z,20.24
2023-01-02T19:54:35.498Z,20.14
2023-01-02T19:59:43.648Z,20.20
2023-01-02T20:04:48.008Z,20.20
2023-01-02T20:09:52.063Z,20.27
2023-01-02T20:14:55.525Z,20.25
2023-01-02T20:19:59.172Z,20.27
2023-01-02T20:25:02.653Z,20.36
2023-01-02T20:30:07.047Z,20.35
2023-01-02T20:35:10.524Z,20.36
2023-01-02T20:40:14.075Z,20.39
2023-01-02T20:45:17.735Z,20.36
2023-01-02T20:50:21.219Z,20.45
2023-01-02T20:55:24.857Z,20.43
2023-01-02T21:00:28.749Z,20.40
2023-01-02T21:05:32.268Z,20.43
2023-01-02T21:10:36.155Z,20.46
2023-01-02T21:15:46.391Z,20.47
2023-01-02T21:20:50.031Z,20.45
2023-01-02T21:25:53.954Z,20.46
2023-01-02T21:30:57.507Z,20.46
2023-01-02T21:36:01.391Z,19.87
2023-01-02T21:41:18.782Z,19.20
2023-01-02T21:46:22.343Z,19.34
2023-01-02T21:51:32.162Z,20.25
2023-01-02T21:56:36.352Z,20.49
2023-01-02T22:01:41.099Z,20.48
2023-01-02T22:07:29.352Z,20.48
2023-01-02T22:12:08.441Z,20.54
2023-01-02T22:17:11.932Z,20.52
2023-01-02T22:22:15.396Z,20.45
2023-01-02T22:27:19.026Z,20.40
2023-01-02T22:32:23.207Z,20.39
2023-01-02T22:37:26.948Z,20.38
2023-01-02T22:43:05.597Z,20.50
2023-01-02T22:48:09.582Z,20.49
2023-01-02T22:53:15.117Z,20.53
2023-01-02T22:58:18.665Z,20.56
2023-01-02T23:03:22.408Z,20.47
2023-01-02T23:08:25.976Z,20.55
2023-01-02T23:13:29.569Z,20.51
2023-01-02T23:18:56.488Z,20.51
2023-01-02T23:24:00.583Z,20.44
2023-01-02T23:29:07.013Z,20.42
2023-01-02T23:34:11.856Z,20.38
2023-01-02T23:39:15.377Z,20.31
2023-01-02T23:44:18.972Z,20.33
2023-01-02T23:49:23.609Z,20.30
2023-01-02T23:54:27.424Z,20.25
2023-01-02T23:59:30.898Z,20.29
